sensor_id;sensor_type;location;lat;lon;timestamp;temperature;humidity
16968;DHT22;64862;54.398;10.126;2023-09-19T00:01:59;17.80;92.90
16968;DHT22;64862;54.398;10.126;2023-09-19T00:12:00;17.90;92.90
16968;DHT22;64862;54.398;10.126;2023-09-19T00:22:04;18.00;92.90
16968;DHT22;64862;54.398;10.126;2023-09-19T00:32:07;17.90;92.90
16968;DHT22;64862;54.398;10.126;2023-09-19T00:42:18;17.90;93.00
16968;DHT22;64862;54.398;10.126;2023-09-19T00:52:22;17.90;93.00
16968;DHT22;64862;54.398;10.126;2023-09-19T01:02:27;17.90;93.10
16968;DHT22;64862;54.398;10.126;2023-09-19T01:12:35;17.90;93.10
16968;DHT22;64862;54.398;10.126;2023-09-19T01:22:53;17.80;93.10
16968;DHT22;64862;54.398;10.126;2023-09-19T01:33:00;17.80;93.00
16968;DHT22;64862;54.398;10.126;2023-09-19T01:43:07;17.70;92.80
16968;DHT22;64862;54.398;10.126;2023-09-19T01:53:17;17.60;93.00
16968;DHT22;64862;54.398;10.126;2023-09-19T02:03:24;17.40;93.30
16968;DHT22;64862;54.398;10.126;2023-09-19T02:13:30;17.30;93.80
16968;DHT22;64862;54.398;10.126;2023-09-19T02:23:32;17.20;93.80
16968;DHT22;64862;54.398;10.126;2023-09-19T02:33:36;17.10;94.20
16968;DHT22;64862;54.398;10.126;2023-09-19T02:43:38;17.10;94.10
16968;DHT22;64862;54.398;10.126;2023-09-19T02:53:41;17.10;94.10
16968;DHT22;64862;54.398;10.126;2023-09-19T03:03:44;17.10;94.20
16968;DHT22;64862;54.398;10.126;2023-09-19T03:13:52;17.00;94.40
16968;DHT22;64862;54.398;10.126;2023-09-19T03:23:56;17.00;94.40
16968;DHT22;64862;54.398;10.126;2023-09-19T03:33:59;16.90;94.10
16968;DHT22;64862;54.398;10.126;2023-09-19T03:44:02;16.90;93.80
16968;DHT22;64862;54.398;10.126;2023-09-19T03:54:05;16.70;93.00
16968;DHT22;64862;54.398;10.126;2023-09-19T04:04:09;16.60;93.00
16968;DHT22;64862;54.398;10.126;2023-09-19T04:14:13;16.60;92.80
16968;DHT22;64862;54.398;10.126;2023-09-19T04:24:15;16.30;91.10
16968;DHT22;64862;54.398;10.126;2023-09-19T04:34:21;16.40;92.40
16968;DHT22;64862;54.398;10.126;2023-09-19T04:44:24;16.00;91.00
16968;DHT22;64862;54.398;10.126;2023-09-19T04:54:28;15.80;90.00
16968;DHT22;64862;54.398;10.126;2023-09-19T05:04:31;15.70;90.40
16968;DHT22;64862;54.398;10.126;2023-09-19T05:14:34;15.90;91.40
16968;DHT22;64862;54.398;10.126;2023-09-19T05:24:36;16.10;92.10
16968;DHT22;64862;54.398;10.126;2023-09-19T05:34:41;16.10;92.30
16968;DHT22;64862;54.398;10.126;2023-09-19T05:44:43;16.10;91.80
16968;DHT22;64862;54.398;10.126;2023-09-19T05:54:46;16.90;91.70
16968;DHT22;64862;54.398;10.126;2023-09-19T06:04:48;18.10;89.20
16968;DHT22;64862;54.398;10.126;2023-09-19T06:14:55;18.40;85.80
16968;DHT22;64862;54.398;10.126;2023-09-19T06:24:57;18.30;84.20
16968;DHT22;64862;54.398;10.126;2023-09-19T06:35:00;18.10;84.10
16968;DHT22;64862;54.398;10.126;2023-09-19T06:45:06;18.00;84.90
16968;DHT22;64862;54.398;10.126;2023-09-19T06:55:10;18.60;83.30
16968;DHT22;64862;54.398;10.126;2023-09-19T07:05:14;17.50;84.50
16968;DHT22;64862;54.398;10.126;2023-09-19T07:15:19;17.10;86.00
16968;DHT22;64862;54.398;10.126;2023-09-19T07:25:25;16.70;86.50
16968;DHT22;64862;54.398;10.126;2023-09-19T07:35:31;16.60;86.90
16968;DHT22;64862;54.398;10.126;2023-09-19T07:45:34;16.40;87.70
16968;DHT22;64862;54.398;10.126;2023-09-19T07:55:38;16.50;88.20
16968;DHT22;64862;54.398;10.126;2023-09-19T08:05:41;16.60;87.60
16968;DHT22;64862;54.398;10.126;2023-09-19T08:15:46;16.60;88.30
16968;DHT22;64862;54.398;10.126;2023-09-19T08:25:48;16.90;87.70
16968;DHT22;64862;54.398;10.126;2023-09-19T08:35:51;16.90;86.80
16968;DHT22;64862;54.398;10.126;2023-09-19T08:46:02;16.60;86.40
16968;DHT22;64862;54.398;10.126;2023-09-19T08:56:10;16.40;87.70
16968;DHT22;64862;54.398;10.126;2023-09-19T09:06:13;16.70;87.50
16968;DHT22;64862;54.398;10.126;2023-09-19T09:16:18;16.70;86.90
16968;DHT22;64862;54.398;10.126;2023-09-19T09:26:40;16.90;86.70
16968;DHT22;64862;54.398;10.126;2023-09-19T09:36:48;16.90;86.80
16968;DHT22;64862;54.398;10.126;2023-09-19T09:46:54;16.90;85.90
16968;DHT22;64862;54.398;10.126;2023-09-19T09:57:17;17.10;84.20
16968;DHT22;64862;54.398;10.126;2023-09-19T10:07:30;17.00;84.80
16968;DHT22;64862;54.398;10.126;2023-09-19T10:17:42;17.20;85.20
16968;DHT22;64862;54.398;10.126;2023-09-19T10:27:45;17.40;83.30
16968;DHT22;64862;54.398;10.126;2023-09-19T10:37:52;17.70;82.00
16968;DHT22;64862;54.398;10.126;2023-09-19T10:47:57;17.80;80.30
16968;DHT22;64862;54.398;10.126;2023-09-19T10:58:00;17.90;81.20
16968;DHT22;64862;54.398;10.126;2023-09-19T11:08:05;18.00;80.10
16968;DHT22;64862;54.398;10.126;2023-09-19T11:29:24;18.00;78.20
16968;DHT22;64862;54.398;10.126;2023-09-19T11:39:27;17.90;76.70
16968;DHT22;64862;54.398;10.126;2023-09-19T11:49:30;18.00;77.00
16968;DHT22;64862;54.398;10.126;2023-09-19T11:59:38;18.00;76.60
16968;DHT22;64862;54.398;10.126;2023-09-19T12:09:41;18.30;75.10
16968;DHT22;64862;54.398;10.126;2023-09-19T12:19:51;18.30;73.80
16968;DHT22;64862;54.398;10.126;2023-09-19T12:29:53;18.50;73.30
16968;DHT22;64862;54.398;10.126;2023-09-19T12:40:05;18.60;73.60
16968;DHT22;64862;54.398;10.126;2023-09-19T12:50:18;18.60;74.90
16968;DHT22;64862;54.398;10.126;2023-09-19T13:00:38;18.50;74.90
16968;DHT22;64862;54.398;10.126;2023-09-19T13:11:00;18.60;75.30
16968;DHT22;64862;54.398;10.126;2023-09-19T13:21:07;18.60;74.90
16968;DHT22;64862;54.398;10.126;2023-09-19T13:31:11;18.60;75.00
16968;DHT22;64862;54.398;10.126;2023-09-19T13:41:14;18.80;74.00
16968;DHT22;64862;54.398;10.126;2023-09-19T13:51:16;18.90;73.30
16968;DHT22;64862;54.398;10.126;2023-09-19T14:01:21;18.90;73.80
16968;DHT22;64862;54.398;10.126;2023-09-19T14:11:22;18.90;73.90
16968;DHT22;64862;54.398;10.126;2023-09-19T14:21:26;18.70;74.70
16968;DHT22;64862;54.398;10.126;2023-09-19T14:31:28;18.60;75.90
16968;DHT22;64862;54.398;10.126;2023-09-19T14:41:31;18.60;75.70
16968;DHT22;64862;54.398;10.126;2023-09-19T14:51:33;18.50;80.30
16968;DHT22;64862;54.398;10.126;2023-09-19T15:01:37;18.30;78.70
16968;DHT22;64862;54.398;10.126;2023-09-19T15:11:39;18.30;77.80
16968;DHT22;64862;54.398;10.126;2023-09-19T15:21:42;18.20;77.40
16968;DHT22;64862;54.398;10.126;2023-09-19T15:31:44;18.30;77.50
16968;DHT22;64862;54.398;10.126;2023-09-19T15:41:48;18.40;77.40
16968;DHT22;64862;54.398;10.126;2023-09-19T15:51:51;18.30;77.40
16968;DHT22;64862;54.398;10.126;2023-09-19T16:01:55;18.20;78.60
16968;DHT22;64862;54.398;10.126;2023-09-19T16:11:56;18.20;79.00
16968;DHT22;64862;54.398;10.126;2023-09-19T16:22:00;18.10;80.00
16968;DHT22;64862;54.398;10.126;2023-09-19T16:32:02;18.10;80.60
16968;DHT22;64862;54.398;10.126;2023-09-19T16:42:05;18.10;81.00
16968;DHT22;64862;54.398;10.126;2023-09-19T16:52:08;18.10;81.10
16968;DHT22;64862;54.398;10.126;2023-09-19T17:02:11;18.10;81.70
16968;DHT22;64862;54.398;10.126;2023-09-19T17:12:13;18.00;82.50
16968;DHT22;64862;54.398;10.126;2023-09-19T17:22:16;18.00;82.80
16968;DHT22;64862;54.398;10.126;2023-09-19T17:32:18;18.00;82.80
16968;DHT22;64862;54.398;10.126;2023-09-19T17:42:22;18.10;82.80
16968;DHT22;64862;54.398;10.126;2023-09-19T17:52:24;18.10;82.40
16968;DHT22;64862;54.398;10.126;2023-09-19T18:02:29;18.20;82.40
16968;DHT22;64862;54.398;10.126;2023-09-19T18:12:31;18.20;83.00
16968;DHT22;64862;54.398;10.126;2023-09-19T18:22:34;18.20;83.90
16968;DHT22;64862;54.398;10.126;2023-09-19T18:32:36;18.10;84.20
16968;DHT22;64862;54.398;10.126;2023-09-19T18:42:40;18.00;85.60
16968;DHT22;64862;54.398;10.126;2023-09-19T18:52:42;17.70;88.50
16968;DHT22;64862;54.398;10.126;2023-09-19T19:02:45;18.00;88.20
16968;DHT22;64862;54.398;10.126;2023-09-19T19:12:47;17.90;88.20
16968;DHT22;64862;54.398;10.126;2023-09-19T19:22:50;17.90;87.20
16968;DHT22;64862;54.398;10.126;2023-09-19T19:32:52;17.90;86.50
16968;DHT22;64862;54.398;10.126;2023-09-19T19:42:55;18.10;86.20
16968;DHT22;64862;54.398;10.126;2023-09-19T19:52:57;18.10;86.40
16968;DHT22;64862;54.398;10.126;2023-09-19T20:03:01;18.00;87.20
16968;DHT22;64862;54.398;10.126;2023-09-19T20:13:04;18.00;88.10
16968;DHT22;64862;54.398;10.126;2023-09-19T20:23:08;18.00;88.60
16968;DHT22;64862;54.398;10.126;2023-09-19T20:33:11;17.90;89.50
16968;DHT22;64862;54.398;10.126;2023-09-19T20:43:14;17.90;90.00
16968;DHT22;64862;54.398;10.126;2023-09-19T20:53:16;17.90;90.00
16968;DHT22;64862;54.398;10.126;2023-09-19T21:03:19;17.90;90.20
16968;DHT22;64862;54.398;10.126;2023-09-19T21:13:21;17.90;90.60
16968;DHT22;64862;54.398;10.126;2023-09-19T21:23:24;17.90;90.60
16968;DHT22;64862;54.398;10.126;2023-09-19T21:33:27;17.90;90.40
16968;DHT22;64862;54.398;10.126;2023-09-19T21:43:30;17.90;90.30
16968;DHT22;64862;54.398;10.126;2023-09-19T21:53:33;17.90;90.40
16968;DHT22;64862;54.398;10.126;2023-09-19T22:03:39;17.90;90.40
16968;DHT22;64862;54.398;10.126;2023-09-19T22:13:41;17.80;90.90
16968;DHT22;64862;54.398;10.126;2023-09-19T22:23:45;17.80;91.30
16968;DHT22;64862;54.398;10.126;2023-09-19T22:33:47;17.80;91.70
16968;DHT22;64862;54.398;10.126;2023-09-19T22:43:52;17.70;92.10
16968;DHT22;64862;54.398;10.126;2023-09-19T22:53:56;17.70;92.30
16968;DHT22;64862;54.398;10.126;2023-09-19T23:04:01;17.70;92.40
16968;DHT22;64862;54.398;10.126;2023-09-19T23:14:14;17.60;92.60
16968;DHT22;64862;54.398;10.126;2023-09-19T23:24:18;17.60;92.70
16968;DHT22;64862;54.398;10.126;2023-09-19T23:34:22;17.50;93.20
16968;DHT22;64862;54.398;10.126;2023-09-19T23:44:25;17.50;93.30
16968;DHT22;64862;54.398;10.126;2023-09-19T23:54:28;17.40;93.50
